sensor_id;sensor_type;location;lat;lon;timestamp;P1;durP1;ratioP1;P2;durP2;ratioP2
50124;SDS011;36023;48.670;6.184;2023-02-15T00:01:06;5.40;;;1.92;;
50124;SDS011;36023;48.670;6.184;2023-02-15T00:03:35;3.83;;;1.90;;
50124;SDS011;36023;48.670;6.184;2023-02-15T00:06:01;4.40;;;2.40;;
50124;SDS011;36023;48.670;6.184;2023-02-15T00:08:27;3.67;;;2.05;;
50124;SDS011;36023;48.670;6.184;2023-02-15T00:11:02;4.20;;;2.30;;
50124;SDS011;36023;48.670;6.184;2023-02-15T00:13:32;4.88;;;2.22;;
50124;SDS011;36023;48.670;6.184;2023-02-15T00:16:05;4.72;;;2.30;;
50124;SDS011;36023;48.670;6.184;2023-02-15T00:18:32;3.90;;;2.08;;
50124;SDS011;36023;48.670;6.184;2023-02-15T00:20:58;3.55;;;1.77;;
50124;SDS011;36023;48.670;6.184;2023-02-15T00:23:32;3.30;;;2.13;;
50124;SDS011;36023;48.670;6.184;2023-02-15T00:26:09;4.53;;;2.38;;
50124;SDS011;36023;48.670;6.184;2023-02-15T00:28:37;3.60;;;1.85;;
50124;SDS011;36023;48.670;6.184;2023-02-15T00:31:08;2.97;;;1.98;;
50124;SDS011;36023;48.670;6.184;2023-02-15T00:33:37;4.68;;;2.85;;
50124;SDS011;36023;48.670;6.184;2023-02-15T00:36:05;5.13;;;2.78;;
50124;SDS011;36023;48.670;6.184;2023-02-15T00:38:33;3.60;;;2.15;;
50124;SDS011;36023;48.670;6.184;2023-02-15T00:41:00;5.47;;;2.22;;
50124;SDS011;36023;48.670;6.184;2023-02-15T00:43:28;4.53;;;2.42;;
50124;SDS011;36023;48.670;6.184;2023-02-15T00:45:55;5.07;;;1.95;;
50124;SDS011;36023;48.670;6.184;2023-02-15T00:48:21;4.80;;;2.10;;
50124;SDS011;36023;48.670;6.184;2023-02-15T00:50:52;4.28;;;2.50;;
50124;SDS011;36023;48.670;6.184;2023-02-15T00:53:19;7.13;;;2.90;;
50124;SDS011;36023;48.670;6.184;2023-02-15T00:55:46;4.32;;;2.17;;
50124;SDS011;36023;48.670;6.184;2023-02-15T00:58:12;6.00;;;2.45;;
50124;SDS011;36023;48.670;6.184;2023-02-15T01:00:39;4.63;;;1.80;;
50124;SDS011;36023;48.670;6.184;2023-02-15T01:03:07;6.93;;;2.53;;
50124;SDS011;36023;48.670;6.184;2023-02-15T01:05:35;3.50;;;2.00;;
50124;SDS011;36023;48.670;6.184;2023-02-15T01:08:03;4.82;;;3.05;;
50124;SDS011;36023;48.670;6.184;2023-02-15T01:10:29;3.78;;;1.70;;
50124;SDS011;36023;48.670;6.184;2023-02-15T01:12:55;4.57;;;2.17;;
50124;SDS011;36023;48.670;6.184;2023-02-15T01:15:22;2.42;;;1.73;;
50124;SDS011;36023;48.670;6.184;2023-02-15T01:17:48;2.88;;;1.88;;
50124;SDS011;36023;48.670;6.184;2023-02-15T01:20:18;10.05;;;3.28;;
50124;SDS011;36023;48.670;6.184;2023-02-15T01:22:45;4.70;;;2.33;;
50124;SDS011;36023;48.670;6.184;2023-02-15T01:25:12;3.67;;;2.08;;
50124;SDS011;36023;48.670;6.184;2023-02-15T01:27:38;4.07;;;2.30;;
50124;SDS011;36023;48.670;6.184;2023-02-15T01:30:05;4.35;;;1.65;;
50124;SDS011;36023;48.670;6.184;2023-02-15T01:32:32;3.08;;;2.00;;
50124;SDS011;36023;48.670;6.184;2023-02-15T01:34:58;3.08;;;1.50;;
50124;SDS011;36023;48.670;6.184;2023-02-15T01:37:25;3.00;;;1.70;;
50124;SDS011;36023;48.670;6.184;2023-02-15T01:39:53;2.83;;;1.83;;
50124;SDS011;36023;48.670;6.184;2023-02-15T01:42:22;4.13;;;2.17;;
50124;SDS011;36023;48.670;6.184;2023-02-15T01:44:51;4.50;;;2.67;;
50124;SDS011;36023;48.670;6.184;2023-02-15T01:53:27;4.00;;;1.90;;
50124;SDS011;36023;48.670;6.184;2023-02-15T01:55:57;3.97;;;1.63;;
50124;SDS011;36023;48.670;6.184;2023-02-15T01:58:30;2.45;;;1.55;;
50124;SDS011;36023;48.670;6.184;2023-02-15T02:00:59;2.22;;;1.58;;
50124;SDS011;36023;48.670;6.184;2023-02-15T02:06:17;3.63;;;1.60;;
50124;SDS011;36023;48.670;6.184;2023-02-15T02:08:44;5.60;;;1.85;;
50124;SDS011;36023;48.670;6.184;2023-02-15T02:11:11;4.75;;;2.22;;
50124;SDS011;36023;48.670;6.184;2023-02-15T02:13:40;4.15;;;1.80;;
50124;SDS011;36023;48.670;6.184;2023-02-15T02:30:38;4.30;;;1.85;;
50124;SDS011;36023;48.670;6.184;2023-02-15T02:43:59;5.13;;;2.05;;
50124;SDS011;36023;48.670;6.184;2023-02-15T02:46:35;4.13;;;1.92;;
50124;SDS011;36023;48.670;6.184;2023-02-15T02:49:08;3.85;;;1.80;;
50124;SDS011;36023;48.670;6.184;2023-02-15T02:51:33;4.18;;;2.35;;
50124;SDS011;36023;48.670;6.184;2023-02-15T02:53:59;6.22;;;2.50;;
50124;SDS011;36023;48.670;6.184;2023-02-15T02:56:32;5.57;;;2.13;;
50124;SDS011;36023;48.670;6.184;2023-02-15T02:59:04;4.32;;;2.15;;
50124;SDS011;36023;48.670;6.184;2023-02-15T03:04:30;3.90;;;1.98;;
50124;SDS011;36023;48.670;6.184;2023-02-15T03:07:02;3.72;;;2.00;;
50124;SDS011;36023;48.670;6.184;2023-02-15T03:09:35;4.97;;;2.38;;
50124;SDS011;36023;48.670;6.184;2023-02-15T03:12:08;4.60;;;2.63;;
50124;SDS011;36023;48.670;6.184;2023-02-15T03:14:40;4.93;;;3.15;;
50124;SDS011;36023;48.670;6.184;2023-02-15T03:17:11;5.10;;;2.78;;
50124;SDS011;36023;48.670;6.184;2023-02-15T03:19:38;6.78;;;3.67;;
50124;SDS011;36023;48.670;6.184;2023-02-15T03:22:11;4.57;;;1.70;;
50124;SDS011;36023;48.670;6.184;2023-02-15T03:27:22;7.82;;;2.70;;
50124;SDS011;36023;48.670;6.184;2023-02-15T03:30:02;10.32;;;3.00;;
50124;SDS011;36023;48.670;6.184;2023-02-15T03:32:31;5.90;;;2.63;;
50124;SDS011;36023;48.670;6.184;2023-02-15T03:34:59;12.10;;;2.33;;
50124;SDS011;36023;48.670;6.184;2023-02-15T03:37:30;11.43;;;3.10;;
50124;SDS011;36023;48.670;6.184;2023-02-15T03:43:52;12.18;;;3.45;;
50124;SDS011;36023;48.670;6.184;2023-02-15T03:46:05;12.32;;;4.95;;
50124;SDS011;36023;48.670;6.184;2023-02-15T03:48:37;15.07;;;4.70;;
50124;SDS011;36023;48.670;6.184;2023-02-15T03:51:07;14.25;;;4.07;;
50124;SDS011;36023;48.670;6.184;2023-02-15T03:53:56;17.00;;;4.25;;
50124;SDS011;36023;48.670;6.184;2023-02-15T03:56:24;13.88;;;3.65;;
50124;SDS011;36023;48.670;6.184;2023-02-15T03:58:51;16.23;;;4.60;;
50124;SDS011;36023;48.670;6.184;2023-02-15T04:04:33;9.50;;;3.70;;
50124;SDS011;36023;48.670;6.184;2023-02-15T04:07:01;11.88;;;4.03;;
50124;SDS011;36023;48.670;6.184;2023-02-15T04:09:30;15.93;;;4.93;;
50124;SDS011;36023;48.670;6.184;2023-02-15T04:12:14;18.23;;;4.65;;
50124;SDS011;36023;48.670;6.184;2023-02-15T04:14:40;15.30;;;5.55;;
50124;SDS011;36023;48.670;6.184;2023-02-15T04:17:24;24.33;;;4.97;;
50124;SDS011;36023;48.670;6.184;2023-02-15T04:19:50;12.30;;;4.85;;
50124;SDS011;36023;48.670;6.184;2023-02-15T04:22:34;20.83;;;5.38;;
50124;SDS011;36023;48.670;6.184;2023-02-15T04:25:19;18.35;;;6.15;;
50124;SDS011;36023;48.670;6.184;2023-02-15T04:27:47;12.00;;;4.35;;
50124;SDS011;36023;48.670;6.184;2023-02-15T04:30:16;15.48;;;4.78;;
50124;SDS011;36023;48.670;6.184;2023-02-15T04:32:45;14.90;;;5.00;;
50124;SDS011;36023;48.670;6.184;2023-02-15T04:35:11;16.55;;;4.90;;
50124;SDS011;36023;48.670;6.184;2023-02-15T04:37:37;13.60;;;5.32;;
50124;SDS011;36023;48.670;6.184;2023-02-15T04:40:05;9.38;;;4.47;;
50124;SDS011;36023;48.670;6.184;2023-02-15T04:42:32;16.88;;;3.95;;
50124;SDS011;36023;48.670;6.184;2023-02-15T04:44:58;19.27;;;4.68;;
50124;SDS011;36023;48.670;6.184;2023-02-15T04:47:24;13.63;;;3.75;;
50124;SDS011;36023;48.670;6.184;2023-02-15T04:49:49;13.90;;;4.57;;
50124;SDS011;36023;48.670;6.184;2023-02-15T04:52:15;16.50;;;5.80;;
50124;SDS011;36023;48.670;6.184;2023-02-15T04:54:44;16.55;;;4.00;;
50124;SDS011;36023;48.670;6.184;2023-02-15T04:57:10;20.58;;;4.97;;
50124;SDS011;36023;48.670;6.184;2023-02-15T04:59:36;18.52;;;5.60;;
50124;SDS011;36023;48.670;6.184;2023-02-15T05:02:02;15.63;;;5.32;;
50124;SDS011;36023;48.670;6.184;2023-02-15T05:04:28;12.98;;;3.50;;
50124;SDS011;36023;48.670;6.184;2023-02-15T05:06:54;14.57;;;4.70;;
50124;SDS011;36023;48.670;6.184;2023-02-15T05:09:22;13.23;;;5.13;;
50124;SDS011;36023;48.670;6.184;2023-02-15T05:11:48;8.63;;;3.45;;
50124;SDS011;36023;48.670;6.184;2023-02-15T05:14:13;16.33;;;4.93;;
50124;SDS011;36023;48.670;6.184;2023-02-15T05:16:39;15.57;;;4.25;;
50124;SDS011;36023;48.670;6.184;2023-02-15T05:19:05;13.57;;;3.55;;
50124;SDS011;36023;48.670;6.184;2023-02-15T05:21:31;20.83;;;4.95;;
50124;SDS011;36023;48.670;6.184;2023-02-15T05:23:57;14.75;;;4.07;;
50124;SDS011;36023;48.670;6.184;2023-02-15T05:26:24;11.90;;;4.47;;
50124;SDS011;36023;48.670;6.184;2023-02-15T05:29:08;16.60;;;4.45;;
50124;SDS011;36023;48.670;6.184;2023-02-15T05:31:36;14.45;;;4.95;;
50124;SDS011;36023;48.670;6.184;2023-02-15T05:34:02;16.48;;;4.72;;
50124;SDS011;36023;48.670;6.184;2023-02-15T05:36:28;19.95;;;5.28;;
50124;SDS011;36023;48.670;6.184;2023-02-15T05:38:54;18.23;;;5.43;;
50124;SDS011;36023;48.670;6.184;2023-02-15T05:41:20;13.98;;;4.78;;
50124;SDS011;36023;48.670;6.184;2023-02-15T05:43:45;18.77;;;4.85;;
50124;SDS011;36023;48.670;6.184;2023-02-15T05:46:11;19.13;;;4.68;;
50124;SDS011;36023;48.670;6.184;2023-02-15T05:48:38;18.58;;;5.43;;
50124;SDS011;36023;48.670;6.184;2023-02-15T05:51:07;19.35;;;5.70;;
50124;SDS011;36023;48.670;6.184;2023-02-15T05:53:36;14.18;;;4.57;;
50124;SDS011;36023;48.670;6.184;2023-02-15T05:56:06;18.25;;;6.75;;
50124;SDS011;36023;48.670;6.184;2023-02-15T05:58:34;14.50;;;4.60;;
50124;SDS011;36023;48.670;6.184;2023-02-15T06:03:33;16.33;;;5.72;;
50124;SDS011;36023;48.670;6.184;2023-02-15T06:05:59;20.92;;;5.88;;
50124;SDS011;36023;48.670;6.184;2023-02-15T06:08:25;13.63;;;4.97;;
50124;SDS011;36023;48.670;6.184;2023-02-15T06:10:52;23.70;;;5.95;;
50124;SDS011;36023;48.670;6.184;2023-02-15T06:13:19;15.93;;;6.35;;
50124;SDS011;36023;48.670;6.184;2023-02-15T06:15:45;19.08;;;5.70;;
50124;SDS011;36023;48.670;6.184;2023-02-15T06:18:11;16.33;;;5.25;;
50124;SDS011;36023;48.670;6.184;2023-02-15T06:20:36;16.30;;;5.32;;
50124;SDS011;36023;48.670;6.184;2023-02-15T06:23:02;26.38;;;5.53;;
50124;SDS011;36023;48.670;6.184;2023-02-15T06:25:28;16.30;;;5.90;;
50124;SDS011;36023;48.670;6.184;2023-02-15T06:27:55;19.85;;;6.80;;
50124;SDS011;36023;48.670;6.184;2023-02-15T06:30:23;20.00;;;5.78;;
50124;SDS011;36023;48.670;6.184;2023-02-15T06:32:49;21.50;;;7.10;;
50124;SDS011;36023;48.670;6.184;2023-02-15T06:35:16;17.65;;;6.47;;
50124;SDS011;36023;48.670;6.184;2023-02-15T06:37:42;24.67;;;6.05;;
50124;SDS011;36023;48.670;6.184;2023-02-15T06:40:12;16.75;;;5.72;;
50124;SDS011;36023;48.670;6.184;2023-02-15T06:42:38;14.48;;;6.40;;
50124;SDS011;36023;48.670;6.184;2023-02-15T06:45:04;17.48;;;5.20;;
50124;SDS011;36023;48.670;6.184;2023-02-15T06:47:29;18.67;;;5.47;;
50124;SDS011;36023;48.670;6.184;2023-02-15T06:49:55;22.73;;;6.95;;
50124;SDS011;36023;48.670;6.184;2023-02-15T06:52:21;24.05;;;7.63;;
50124;SDS011;36023;48.670;6.184;2023-02-15T06:54:48;20.80;;;6.95;;
50124;SDS011;36023;48.670;6.184;2023-02-15T06:57:13;23.48;;;6.95;;
50124;SDS011;36023;48.670;6.184;2023-02-15T06:59:39;26.05;;;6.15;;
50124;SDS011;36023;48.670;6.184;2023-02-15T07:02:05;20.23;;;7.05;;
50124;SDS011;36023;48.670;6.184;2023-02-15T07:04:31;19.10;;;6.40;;
50124;SDS011;36023;48.670;6.184;2023-02-15T07:06:57;20.45;;;5.90;;
50124;SDS011;36023;48.670;6.184;2023-02-15T07:09:22;18.88;;;5.45;;
50124;SDS011;36023;48.670;6.184;2023-02-15T07:11:48;24.92;;;7.47;;
50124;SDS011;36023;48.670;6.184;2023-02-15T07:14:32;18.70;;;5.85;;
50124;SDS011;36023;48.670;6.184;2023-02-15T07:16:58;18.95;;;6.85;;
50124;SDS011;36023;48.670;6.184;2023-02-15T07:19:24;21.98;;;7.05;;
50124;SDS011;36023;48.670;6.184;2023-02-15T07:21:49;24.85;;;6.38;;
50124;SDS011;36023;48.670;6.184;2023-02-15T07:24:15;21.35;;;6.68;;
50124;SDS011;36023;48.670;6.184;2023-02-15T07:26:40;18.88;;;6.22;;
50124;SDS011;36023;48.670;6.184;2023-02-15T07:29:07;27.73;;;7.88;;
50124;SDS011;36023;48.670;6.184;2023-02-15T07:31:33;19.88;;;6.97;;
50124;SDS011;36023;48.670;6.184;2023-02-15T07:33:59;29.25;;;7.25;;
50124;SDS011;36023;48.670;6.184;2023-02-15T07:36:24;20.67;;;6.47;;
50124;SDS011;36023;48.670;6.184;2023-02-15T07:38:50;22.17;;;6.53;;
50124;SDS011;36023;48.670;6.184;2023-02-15T07:41:17;22.88;;;7.47;;
50124;SDS011;36023;48.670;6.184;2023-02-15T07:43:43;17.92;;;6.72;;
50124;SDS011;36023;48.670;6.184;2023-02-15T07:46:11;20.20;;;7.80;;
50124;SDS011;36023;48.670;6.184;2023-02-15T07:48:38;25.13;;;6.00;;
50124;SDS011;36023;48.670;6.184;2023-02-15T07:51:06;20.02;;;6.45;;
50124;SDS011;36023;48.670;6.184;2023-02-15T07:53:33;20.38;;;7.13;;
50124;SDS011;36023;48.670;6.184;2023-02-15T07:56:00;22.05;;;6.82;;
50124;SDS011;36023;48.670;6.184;2023-02-15T07:58:27;18.83;;;6.50;;
50124;SDS011;36023;48.670;6.184;2023-02-15T08:01:11;20.00;;;6.72;;
50124;SDS011;36023;48.670;6.184;2023-02-15T08:03:37;23.77;;;7.13;;
50124;SDS011;36023;48.670;6.184;2023-02-15T08:06:03;24.83;;;6.22;;
50124;SDS011;36023;48.670;6.184;2023-02-15T08:08:29;17.60;;;6.50;;
50124;SDS011;36023;48.670;6.184;2023-02-15T08:13:54;32.78;;;7.47;;
50124;SDS011;36023;48.670;6.184;2023-02-15T08:16:40;30.92;;;8.40;;
50124;SDS011;36023;48.670;6.184;2023-02-15T08:19:12;18.95;;;5.03;;
50124;SDS011;36023;48.670;6.184;2023-02-15T08:22:05;22.20;;;8.13;;
50124;SDS011;36023;48.670;6.184;2023-02-15T08:24:35;20.02;;;6.45;;
50124;SDS011;36023;48.670;6.184;2023-02-15T08:27:02;19.98;;;5.75;;
50124;SDS011;36023;48.670;6.184;2023-02-15T08:29:30;27.92;;;7.10;;
50124;SDS011;36023;48.670;6.184;2023-02-15T08:31:58;24.42;;;7.78;;
50124;SDS011;36023;48.670;6.184;2023-02-15T08:34:27;17.58;;;5.97;;
50124;SDS011;36023;48.670;6.184;2023-02-15T08:36:55;16.15;;;6.15;;
50124;SDS011;36023;48.670;6.184;2023-02-15T08:39:22;20.85;;;7.00;;
50124;SDS011;36023;48.670;6.184;2023-02-15T08:41:48;15.73;;;5.75;;
50124;SDS011;36023;48.670;6.184;2023-02-15T08:44:15;27.23;;;7.63;;
50124;SDS011;36023;48.670;6.184;2023-02-15T08:46:43;17.23;;;6.32;;
50124;SDS011;36023;48.670;6.184;2023-02-15T08:49:11;22.30;;;6.88;;
50124;SDS011;36023;48.670;6.184;2023-02-15T08:51:38;20.45;;;7.25;;
50124;SDS011;36023;48.670;6.184;2023-02-15T08:54:07;18.75;;;6.55;;
50124;SDS011;36023;48.670;6.184;2023-02-15T08:56:36;22.02;;;6.45;;
50124;SDS011;36023;48.670;6.184;2023-02-15T08:59:04;17.23;;;5.60;;
50124;SDS011;36023;48.670;6.184;2023-02-15T09:01:31;26.67;;;6.78;;
50124;SDS011;36023;48.670;6.184;2023-02-15T09:03:59;21.08;;;6.20;;
50124;SDS011;36023;48.670;6.184;2023-02-15T09:06:26;19.23;;;5.57;;
50124;SDS011;36023;48.670;6.184;2023-02-15T09:08:53;21.55;;;6.13;;
50124;SDS011;36023;48.670;6.184;2023-02-15T09:11:30;22.75;;;5.13;;
50124;SDS011;36023;48.670;6.184;2023-02-15T09:14:05;19.90;;;5.88;;
50124;SDS011;36023;48.670;6.184;2023-02-15T09:16:34;15.93;;;5.82;;
50124;SDS011;36023;48.670;6.184;2023-02-15T09:19:02;16.08;;;5.38;;
50124;SDS011;36023;48.670;6.184;2023-02-15T09:21:32;17.95;;;4.65;;
50124;SDS011;36023;48.670;6.184;2023-02-15T09:24:01;21.55;;;6.35;;
50124;SDS011;36023;48.670;6.184;2023-02-15T09:26:30;20.98;;;6.25;;
50124;SDS011;36023;48.670;6.184;2023-02-15T09:28:59;17.05;;;5.38;;
50124;SDS011;36023;48.670;6.184;2023-02-15T09:31:28;16.02;;;5.72;;
50124;SDS011;36023;48.670;6.184;2023-02-15T09:33:56;26.23;;;6.35;;
50124;SDS011;36023;48.670;6.184;2023-02-15T09:36:24;28.00;;;6.47;;
50124;SDS011;36023;48.670;6.184;2023-02-15T09:38:55;18.58;;;5.05;;
50124;SDS011;36023;48.670;6.184;2023-02-15T09:44:56;17.05;;;5.97;;
50124;SDS011;36023;48.670;6.184;2023-02-15T09:58:18;18.05;;;6.45;;
50124;SDS011;36023;48.670;6.184;2023-02-15T10:25:19;25.90;;;8.18;;
50124;SDS011;36023;48.670;6.184;2023-02-15T10:28:16;19.30;;;6.40;;
50124;SDS011;36023;48.670;6.184;2023-02-15T10:30:50;23.33;;;7.38;;
50124;SDS011;36023;48.670;6.184;2023-02-15T10:33:23;19.50;;;8.10;;
50124;SDS011;36023;48.670;6.184;2023-02-15T10:41:08;17.52;;;6.68;;
50124;SDS011;36023;48.670;6.184;2023-02-15T10:48:53;20.02;;;7.80;;
50124;SDS011;36023;48.670;6.184;2023-02-15T10:53:56;28.67;;;8.25;;
50124;SDS011;36023;48.670;6.184;2023-02-15T11:01:59;27.20;;;5.97;;
50124;SDS011;36023;48.670;6.184;2023-02-15T11:07:26;18.13;;;6.68;;
50124;SDS011;36023;48.670;6.184;2023-02-15T11:10:02;22.75;;;7.30;;
50124;SDS011;36023;48.670;6.184;2023-02-15T11:12:49;22.08;;;7.35;;
50124;SDS011;36023;48.670;6.184;2023-02-15T11:15:35;21.13;;;6.63;;
50124;SDS011;36023;48.670;6.184;2023-02-15T11:18:08;17.98;;;7.25;;
50124;SDS011;36023;48.670;6.184;2023-02-15T11:21:02;18.90;;;6.20;;
50124;SDS011;36023;48.670;6.184;2023-02-15T11:23:35;15.98;;;6.53;;
50124;SDS011;36023;48.670;6.184;2023-02-15T11:26:09;18.48;;;5.68;;
50124;SDS011;36023;48.670;6.184;2023-02-15T11:28:43;14.38;;;5.72;;
50124;SDS011;36023;48.670;6.184;2023-02-15T11:31:20;14.90;;;6.20;;
50124;SDS011;36023;48.670;6.184;2023-02-15T11:34:51;16.58;;;5.90;;
50124;SDS011;36023;48.670;6.184;2023-02-15T11:37:12;15.38;;;6.07;;
50124;SDS011;36023;48.670;6.184;2023-02-15T11:39:43;15.45;;;5.25;;
50124;SDS011;36023;48.670;6.184;2023-02-15T11:42:11;15.88;;;6.32;;
50124;SDS011;36023;48.670;6.184;2023-02-15T11:44:59;12.18;;;6.13;;
50124;SDS011;36023;48.670;6.184;2023-02-15T11:47:32;16.80;;;6.38;;
50124;SDS011;36023;48.670;6.184;2023-02-15T11:49:59;13.88;;;5.03;;
50124;SDS011;36023;48.670;6.184;2023-02-15T11:52:24;11.25;;;5.50;;
50124;SDS011;36023;48.670;6.184;2023-02-15T11:54:51;16.75;;;6.38;;
50124;SDS011;36023;48.670;6.184;2023-02-15T12:02:45;16.40;;;6.53;;
50124;SDS011;36023;48.670;6.184;2023-02-15T12:05:17;12.25;;;5.25;;
50124;SDS011;36023;48.670;6.184;2023-02-15T12:11:03;16.23;;;6.63;;
50124;SDS011;36023;48.670;6.184;2023-02-15T12:16:27;17.30;;;5.63;;
50124;SDS011;36023;48.670;6.184;2023-02-15T12:18:58;10.68;;;4.82;;
50124;SDS011;36023;48.670;6.184;2023-02-15T12:21:27;16.67;;;5.35;;
50124;SDS011;36023;48.670;6.184;2023-02-15T12:23:56;14.70;;;5.18;;
50124;SDS011;36023;48.670;6.184;2023-02-15T12:26:31;9.90;;;5.10;;
50124;SDS011;36023;48.670;6.184;2023-02-15T12:29:21;11.68;;;5.18;;
50124;SDS011;36023;48.670;6.184;2023-02-15T12:31:49;12.52;;;6.18;;
50124;SDS011;36023;48.670;6.184;2023-02-15T12:34:21;12.30;;;4.57;;
50124;SDS011;36023;48.670;6.184;2023-02-15T12:36:53;10.23;;;4.85;;
50124;SDS011;36023;48.670;6.184;2023-02-15T12:39:40;13.73;;;4.85;;
50124;SDS011;36023;48.670;6.184;2023-02-15T12:42:24;7.05;;;3.47;;
50124;SDS011;36023;48.670;6.184;2023-02-15T12:44:55;12.05;;;5.53;;
50124;SDS011;36023;48.670;6.184;2023-02-15T12:47:30;10.00;;;4.65;;
50124;SDS011;36023;48.670;6.184;2023-02-15T12:50:07;8.48;;;4.85;;
50124;SDS011;36023;48.670;6.184;2023-02-15T12:52:42;8.73;;;3.47;;
50124;SDS011;36023;48.670;6.184;2023-02-15T12:55:10;10.90;;;3.97;;
50124;SDS011;36023;48.670;6.184;2023-02-15T12:57:46;9.90;;;3.72;;
50124;SDS011;36023;48.670;6.184;2023-02-15T13:02:48;7.53;;;3.47;;
50124;SDS011;36023;48.670;6.184;2023-02-15T13:05:18;8.65;;;2.95;;
50124;SDS011;36023;48.670;6.184;2023-02-15T13:07:56;9.27;;;3.72;;
50124;SDS011;36023;48.670;6.184;2023-02-15T13:10:27;9.45;;;3.47;;
50124;SDS011;36023;48.670;6.184;2023-02-15T13:12:56;8.40;;;3.50;;
50124;SDS011;36023;48.670;6.184;2023-02-15T13:17:57;10.05;;;3.53;;
50124;SDS011;36023;48.670;6.184;2023-02-15T13:20:24;9.73;;;3.95;;
50124;SDS011;36023;48.670;6.184;2023-02-15T13:22:54;12.13;;;4.47;;
50124;SDS011;36023;48.670;6.184;2023-02-15T13:25:39;9.15;;;3.00;;
50124;SDS011;36023;48.670;6.184;2023-02-15T13:28:16;8.15;;;2.85;;
50124;SDS011;36023;48.670;6.184;2023-02-15T13:30:46;6.15;;;2.60;;
50124;SDS011;36023;48.670;6.184;2023-02-15T13:33:16;7.55;;;2.95;;
50124;SDS011;36023;48.670;6.184;2023-02-15T13:38:45;8.25;;;3.47;;
50124;SDS011;36023;48.670;6.184;2023-02-15T13:41:25;8.48;;;3.72;;
50124;SDS011;36023;48.670;6.184;2023-02-15T13:46:48;7.45;;;2.75;;
50124;SDS011;36023;48.670;6.184;2023-02-15T13:52:06;5.93;;;2.65;;
50124;SDS011;36023;48.670;6.184;2023-02-15T13:54:46;6.68;;;3.15;;
50124;SDS011;36023;48.670;6.184;2023-02-15T14:00:04;10.15;;;3.78;;
50124;SDS011;36023;48.670;6.184;2023-02-15T14:11:06;4.88;;;2.13;;
50124;SDS011;36023;48.670;6.184;2023-02-15T14:13:51;5.47;;;2.90;;
50124;SDS011;36023;48.670;6.184;2023-02-15T14:16:26;6.25;;;2.70;;
50124;SDS011;36023;48.670;6.184;2023-02-15T14:19:18;6.25;;;2.25;;
50124;SDS011;36023;48.670;6.184;2023-02-15T14:22:00;7.50;;;2.05;;
50124;SDS011;36023;48.670;6.184;2023-02-15T14:24:55;4.35;;;2.17;;
50124;SDS011;36023;48.670;6.184;2023-02-15T14:30:23;6.70;;;2.65;;
50124;SDS011;36023;48.670;6.184;2023-02-15T14:33:05;4.20;;;2.30;;
50124;SDS011;36023;48.670;6.184;2023-02-15T14:35:54;7.13;;;2.17;;
50124;SDS011;36023;48.670;6.184;2023-02-15T14:38:32;5.80;;;1.85;;
50124;SDS011;36023;48.670;6.184;2023-02-15T14:44:29;4.60;;;2.80;;
50124;SDS011;36023;48.670;6.184;2023-02-15T14:47:04;6.78;;;2.58;;
50124;SDS011;36023;48.670;6.184;2023-02-15T14:49:36;4.72;;;2.42;;
50124;SDS011;36023;48.670;6.184;2023-02-15T14:52:07;5.03;;;1.83;;
50124;SDS011;36023;48.670;6.184;2023-02-15T15:07:27;2.83;;;1.92;;
50124;SDS011;36023;48.670;6.184;2023-02-15T15:12:44;9.55;;;2.80;;
50124;SDS011;36023;48.670;6.184;2023-02-15T15:17:53;3.80;;;2.05;;
50124;SDS011;36023;48.670;6.184;2023-02-15T15:31:02;3.30;;;2.28;;
50124;SDS011;36023;48.670;6.184;2023-02-15T15:36:30;5.22;;;2.22;;
50124;SDS011;36023;48.670;6.184;2023-02-15T15:42:12;4.68;;;1.75;;
50124;SDS011;36023;48.670;6.184;2023-02-15T15:47:49;3.85;;;1.70;;
50124;SDS011;36023;48.670;6.184;2023-02-15T15:50:44;4.85;;;1.85;;
50124;SDS011;36023;48.670;6.184;2023-02-15T15:53:18;4.82;;;1.95;;
50124;SDS011;36023;48.670;6.184;2023-02-15T15:55:48;2.72;;;1.33;;
50124;SDS011;36023;48.670;6.184;2023-02-15T15:58:17;3.08;;;1.60;;
50124;SDS011;36023;48.670;6.184;2023-02-15T16:00:49;2.95;;;2.03;;
50124;SDS011;36023;48.670;6.184;2023-02-15T16:03:24;3.72;;;1.45;;
50124;SDS011;36023;48.670;6.184;2023-02-15T16:05:52;5.32;;;1.92;;
50124;SDS011;36023;48.670;6.184;2023-02-15T16:08:30;2.60;;;1.80;;
50124;SDS011;36023;48.670;6.184;2023-02-15T16:10:58;3.50;;;1.42;;
50124;SDS011;36023;48.670;6.184;2023-02-15T16:13:33;4.90;;;2.05;;
50124;SDS011;36023;48.670;6.184;2023-02-15T16:15:59;3.63;;;1.60;;
50124;SDS011;36023;48.670;6.184;2023-02-15T16:18:25;2.78;;;1.17;;
50124;SDS011;36023;48.670;6.184;2023-02-15T16:20:53;2.45;;;1.33;;
50124;SDS011;36023;48.670;6.184;2023-02-15T16:28:34;4.47;;;1.77;;
50124;SDS011;36023;48.670;6.184;2023-02-15T16:33:38;3.78;;;1.60;;
50124;SDS011;36023;48.670;6.184;2023-02-15T16:36:05;3.75;;;1.70;;
50124;SDS011;36023;48.670;6.184;2023-02-15T16:41:14;2.38;;;1.55;;
50124;SDS011;36023;48.670;6.184;2023-02-15T16:43:43;16.77;;;1.33;;
50124;SDS011;36023;48.670;6.184;2023-02-15T16:46:15;3.75;;;1.77;;
50124;SDS011;36023;48.670;6.184;2023-02-15T16:48:46;3.75;;;1.30;;
50124;SDS011;36023;48.670;6.184;2023-02-15T16:51:23;2.53;;;1.50;;
50124;SDS011;36023;48.670;6.184;2023-02-15T16:53:53;3.30;;;1.20;;
50124;SDS011;36023;48.670;6.184;2023-02-15T16:56:25;3.45;;;1.75;;
50124;SDS011;36023;48.670;6.184;2023-02-15T16:58:54;3.67;;;1.13;;
50124;SDS011;36023;48.670;6.184;2023-02-15T17:01:21;3.85;;;1.58;;
50124;SDS011;36023;48.670;6.184;2023-02-15T17:03:50;2.40;;;1.52;;
50124;SDS011;36023;48.670;6.184;2023-02-15T17:06:24;3.40;;;1.60;;
50124;SDS011;36023;48.670;6.184;2023-02-15T17:08:51;2.42;;;1.67;;
50124;SDS011;36023;48.670;6.184;2023-02-15T17:16:47;4.85;;;1.75;;
50124;SDS011;36023;48.670;6.184;2023-02-15T17:21:46;4.60;;;1.90;;
50124;SDS011;36023;48.670;6.184;2023-02-15T17:24:16;2.70;;;1.48;;
50124;SDS011;36023;48.670;6.184;2023-02-15T17:26:51;4.45;;;1.48;;
50124;SDS011;36023;48.670;6.184;2023-02-15T17:32:00;1.75;;;1.20;;
50124;SDS011;36023;48.670;6.184;2023-02-15T17:40:07;4.38;;;2.13;;
50124;SDS011;36023;48.670;6.184;2023-02-15T17:42:49;2.58;;;1.55;;
50124;SDS011;36023;48.670;6.184;2023-02-15T17:45:17;3.25;;;1.70;;
50124;SDS011;36023;48.670;6.184;2023-02-15T17:47:43;2.75;;;1.55;;
50124;SDS011;36023;48.670;6.184;2023-02-15T17:50:21;6.30;;;2.40;;
50124;SDS011;36023;48.670;6.184;2023-02-15T17:52:49;3.50;;;1.40;;
50124;SDS011;36023;48.670;6.184;2023-02-15T17:55:20;2.38;;;1.13;;
50124;SDS011;36023;48.670;6.184;2023-02-15T17:58:03;3.05;;;1.73;;
50124;SDS011;36023;48.670;6.184;2023-02-15T18:00:49;2.65;;;0.93;;
50124;SDS011;36023;48.670;6.184;2023-02-15T18:03:40;3.88;;;1.63;;
50124;SDS011;36023;48.670;6.184;2023-02-15T18:06:26;1.40;;;0.93;;
50124;SDS011;36023;48.670;6.184;2023-02-15T18:09:12;4.00;;;1.85;;
50124;SDS011;36023;48.670;6.184;2023-02-15T18:11:58;3.92;;;1.17;;
50124;SDS011;36023;48.670;6.184;2023-02-15T18:14:24;3.20;;;1.80;;
50124;SDS011;36023;48.670;6.184;2023-02-15T18:16:49;2.97;;;1.38;;
50124;SDS011;36023;48.670;6.184;2023-02-15T18:19:19;2.60;;;1.50;;
50124;SDS011;36023;48.670;6.184;2023-02-15T18:21:47;2.85;;;1.35;;
50124;SDS011;36023;48.670;6.184;2023-02-15T18:24:18;2.85;;;1.45;;
50124;SDS011;36023;48.670;6.184;2023-02-15T18:26:46;2.65;;;1.23;;
50124;SDS011;36023;48.670;6.184;2023-02-15T18:29:12;2.55;;;1.60;;
50124;SDS011;36023;48.670;6.184;2023-02-15T18:31:39;2.53;;;1.33;;
50124;SDS011;36023;48.670;6.184;2023-02-15T18:34:06;3.03;;;1.60;;
50124;SDS011;36023;48.670;6.184;2023-02-15T18:36:48;2.63;;;1.40;;
50124;SDS011;36023;48.670;6.184;2023-02-15T18:42:05;3.10;;;1.70;;
50124;SDS011;36023;48.670;6.184;2023-02-15T18:44:31;3.85;;;1.70;;